Time;durP1;ratioP1;P1;durP2;ratioP2;P2;SDS_P1;SDS_P2;PMS_P1;PMS_P2;Temp;Humidity;BMP_temperature;BMP_pressure;BME280_temperature;BME280_humidity;BME280_pressure;Samples;Min_cycle;Max_cycle;Signal;HPM_P1;HPM_P2
2022/01/26 00:00:43;;;;;;;49.55;24.98;;;2.90;99.90;;;;;;5061474;28;20292;-87
2022/01/26 00:06:01;;;;;;;45.05;23.40;;;2.90;99.90;;;;;;5061611;28;20194;-88
2022/01/26 00:08:28;;;;;;;44.13;24.80;;;2.80;99.90;;;;;;5061781;28;20630;-88
2022/01/26 00:10:56;;;;;;;49.38;26.90;;;2.60;99.90;;;;;;5067562;28;20225;-85
2022/01/26 00:13:23;;;;;;;50.75;26.38;;;2.60;99.90;;;;;;5061084;28;20307;-85
2022/01/26 00:15:50;;;;;;;50.38;27.05;;;2.40;99.90;;;;;;5058344;28;20315;-85
2022/01/26 00:18:20;;;;;;;45.72;27.92;;;2.40;99.90;;;;;;5058606;28;20683;-87
2022/01/26 00:20:53;;;;;;;53.25;30.15;;;2.70;99.90;;;;;;5066738;28;20205;-86
2022/01/26 00:23:46;;;;;;;53.22;30.23;;;2.20;99.90;;;;;;5064095;28;20228;-88
2022/01/26 00:26:21;;;;;;;52.97;28.27;;;2.60;99.90;;;;;;5070401;28;20557;-88
2022/01/26 00:29:08;;;;;;;52.88;29.70;;;2.60;99.90;;;;;;5062413;28;20221;-88
2022/01/26 00:38:34;;;;;;;50.03;27.38;;;2.50;99.90;;;;;;5062145;28;20664;-87
2022/01/26 00:39:56;;;;;;;50.50;27.17;;;2.90;99.90;;;;;;5067358;28;20220;-87
2022/01/26 00:42:25;;;;;;;50.15;27.55;;;3.20;99.90;;;;;;5068347;28;20729;-88
2022/01/26 00:44:52;;;;;;;56.50;27.75;;;2.60;99.90;;;;;;5068921;28;20235;-88
2022/01/26 00:47:19;;;;;;;51.72;25.85;;;3.00;99.90;;;;;;5065910;28;20247;-87
2022/01/26 00:49:46;;;;;;;53.53;26.77;;;3.30;99.90;;;;;;5060612;28;20230;-87
2022/01/26 00:52:19;;;;;;;50.72;26.95;;;2.90;99.90;;;;;;5062046;28;20232;-88
2022/01/26 00:54:46;;;;;;;55.97;28.15;;;2.40;99.90;;;;;;5069356;28;20197;-88
2022/01/26 00:57:14;;;;;;;47.50;26.23;;;2.70;99.90;;;;;;5071868;28;20255;-87
2022/01/26 00:59:43;;;;;;;57.65;27.42;;;2.50;99.90;;;;;;5063794;28;20265;-88
2022/01/26 01:02:10;;;;;;;59.05;27.20;;;2.70;99.90;;;;;;5077137;28;20189;-88
2022/01/26 01:04:39;;;;;;;50.20;26.38;;;2.50;99.90;;;;;;5078155;28;20247;-87
2022/01/26 01:07:11;;;;;;;54.58;28.20;;;2.60;99.90;;;;;;5074780;28;20358;-88
2022/01/26 01:09:38;;;;;;;54.63;28.75;;;2.70;99.90;;;;;;5066629;28;20192;-88
2022/01/26 01:12:06;;;;;;;60.05;28.45;;;2.10;99.90;;;;;;5060959;28;20236;-89
2022/01/26 01:14:39;;;;;;;55.60;30.92;;;2.70;99.90;;;;;;5063816;28;20235;-86
2022/01/26 01:17:10;;;;;;;58.22;28.00;;;2.60;99.90;;;;;;5063661;28;20271;-87
2022/01/26 01:19:42;;;;;;;68.40;29.20;;;2.70;99.90;;;;;;5061928;28;20193;-88
2022/01/26 01:22:34;;;;;;;58.20;27.52;;;2.60;99.90;;;;;;5059582;28;20191;-88
2022/01/26 01:28:00;;;;;;;61.95;27.88;;;2.80;99.90;;;;;;5060854;28;20188;-87
2022/01/26 01:30:35;;;;;;;39.85;18.83;;;2.80;99.90;;;;;;5060910;28;20642;-87
2022/01/26 01:33:08;;;;;;;52.83;22.73;;;2.70;99.90;;;;;;5060153;28;20226;-88
2022/01/26 01:35:38;;;;;;;63.30;25.02;;;2.50;99.90;;;;;;5060658;28;20216;-88
2022/01/26 01:38:12;;;;;;;39.35;19.15;;;2.50;99.90;;;;;;5060074;28;20253;-88
2022/01/26 01:40:41;;;;;;;54.72;27.02;;;2.40;99.90;;;;;;5060136;28;20204;-87
2022/01/26 01:43:10;;;;;;;62.55;24.77;;;2.20;99.90;;;;;;5061291;28;20297;-87
2022/01/26 01:45:41;;;;;;;55.40;24.70;;;1.80;99.90;;;;;;5060161;28;20729;-87
2022/01/26 01:48:11;;;;;;;55.92;28.50;;;1.80;99.90;;;;;;5060482;28;20207;-87
2022/01/26 01:50:41;;;;;;;55.45;28.10;;;2.20;99.90;;;;;;5060002;28;20276;-87
2022/01/26 01:53:08;;;;;;;54.72;26.90;;;2.20;99.90;;;;;;5061945;28;20233;-87
2022/01/26 01:55:40;;;;;;;53.55;28.20;;;2.30;99.90;;;;;;5062365;28;20260;-87
2022/01/26 01:58:07;;;;;;;58.30;24.40;;;1.60;99.90;;;;;;5060516;28;20232;-87
2022/01/26 02:00:35;;;;;;;51.40;26.35;;;2.00;99.90;;;;;;5062853;28;20552;-88
2022/01/26 02:03:02;;;;;;;63.20;30.95;;;2.30;99.90;;;;;;5068662;28;20297;-88
2022/01/26 02:05:30;;;;;;;51.40;26.75;;;2.30;99.90;;;;;;5062403;28;20213;-88
2022/01/26 02:07:57;;;;;;;50.25;24.05;;;2.20;99.90;;;;;;5061161;28;20214;-87
2022/01/26 02:10:25;;;;;;;50.63;24.00;;;2.50;99.90;;;;;;5066819;28;20259;-87
2022/01/26 02:12:56;;;;;;;59.45;28.55;;;2.40;99.90;;;;;;5076866;28;20233;-87
2022/01/26 02:15:28;;;;;;;51.13;24.95;;;2.20;99.90;;;;;;5065848;28;20315;-87
2022/01/26 02:18:17;;;;;;;57.92;27.27;;;2.30;99.90;;;;;;5060995;28;20241;-87
2022/01/26 02:21:08;;;;;;;49.33;26.38;;;2.10;99.90;;;;;;5061399;28;20213;-87
2022/01/26 02:51:10;;;;;;;51.78;26.45;;;2.10;99.90;;;;;;5087938;28;20242;-87
2022/01/26 02:56:27;;;;;;;30.15;15.32;;;2.10;99.90;;;;;;5067705;28;20732;-86
2022/01/26 03:02:05;;;;;;;37.40;18.57;;;2.10;99.90;;;;;;5116149;27;1355114;-86
2022/01/26 03:04:39;;;;;;;37.20;19.75;;;1.90;99.90;;;;;;5139463;28;20526;-86
2022/01/26 03:07:12;;;;;;;33.03;20.80;;;1.90;99.90;;;;;;5151916;28;20222;-86
2022/01/26 03:09:43;;;;;;;38.50;21.92;;;1.90;99.90;;;;;;5140128;28;20259;-86
2022/01/26 03:12:13;;;;;;;36.25;20.75;;;2.00;99.90;;;;;;5140080;28;20221;-87
2022/01/26 03:14:47;;;;;;;36.67;19.30;;;1.90;99.90;;;;;;5141078;28;20719;-87
2022/01/26 03:17:29;;;;;;;47.95;22.17;;;2.10;99.90;;;;;;5148349;28;20190;-87
2022/01/26 03:20:02;;;;;;;41.30;20.13;;;2.00;99.90;;;;;;5145364;28;20195;-88
2022/01/26 03:28:23;;;;;;;18.42;10.98;;;2.20;99.90;;;;;;5139978;28;20186;-87
2022/01/26 03:31:27;;;;;;;29.05;17.20;;;2.00;99.90;;;;;;5139758;28;20187;-87
2022/01/26 03:33:56;;;;;;;29.05;16.67;;;1.70;99.90;;;;;;5140602;28;20233;-87
2022/01/26 03:36:27;;;;;;;22.83;10.70;;;1.90;99.90;;;;;;5139920;28;20242;-87
2022/01/26 03:39:00;;;;;;;32.20;15.30;;;1.80;99.90;;;;;;5147903;28;20199;-87
2022/01/26 03:41:38;;;;;;;25.67;13.93;;;1.80;99.90;;;;;;5153459;28;20219;-87
2022/01/26 03:44:06;;;;;;;30.90;16.65;;;1.70;99.90;;;;;;5144885;28;20297;-87
2022/01/26 03:46:33;;;;;;;34.38;16.27;;;1.60;99.90;;;;;;5140690;28;20267;-88
2022/01/26 03:49:02;;;;;;;34.17;16.98;;;1.40;99.90;;;;;;5145722;28;20223;-86
2022/01/26 03:51:29;;;;;;;35.97;16.85;;;1.50;99.90;;;;;;5152947;28;20229;-88
2022/01/26 03:53:56;;;;;;;32.50;16.83;;;1.40;99.90;;;;;;5143082;28;20237;-88
2022/01/26 03:56:22;;;;;;;33.40;18.23;;;1.60;99.90;;;;;;5141055;28;20706;-88
2022/01/26 03:58:53;;;;;;;35.55;16.10;;;1.50;99.90;;;;;;5139641;28;20214;-87
2022/01/26 04:01:20;;;;;;;36.13;18.85;;;1.60;99.90;;;;;;5139703;28;20226;-88
2022/01/26 04:03:47;;;;;;;38.30;18.63;;;1.40;99.90;;;;;;5142021;28;20646;-88
2022/01/26 04:06:15;;;;;;;41.63;21.20;;;1.40;99.90;;;;;;5148274;28;20305;-88
2022/01/26 04:08:45;;;;;;;37.38;18.27;;;1.50;99.90;;;;;;5139431;28;20210;-87
2022/01/26 04:11:30;;;;;;;42.45;19.83;;;1.30;99.90;;;;;;5136892;28;20191;-88
2022/01/26 04:13:57;;;;;;;40.63;21.42;;;1.40;99.90;;;;;;5125138;28;20226;-88
2022/01/26 04:16:24;;;;;;;41.67;19.92;;;1.40;99.90;;;;;;5124901;28;20246;-88
2022/01/26 04:18:54;;;;;;;41.30;20.48;;;1.20;99.90;;;;;;5124622;28;20652;-87
2022/01/26 04:21:31;;;;;;;42.92;20.25;;;1.30;99.90;;;;;;5124964;28;20220;-88
2022/01/26 04:24:02;;;;;;;47.45;21.50;;;1.40;99.90;;;;;;5124097;28;20228;-88
2022/01/26 04:26:34;;;;;;;46.67;19.58;;;1.60;99.90;;;;;;5133068;28;20203;-87
2022/01/26 04:29:05;;;;;;;41.05;20.30;;;2.00;99.90;;;;;;5127253;28;20260;-88
2022/01/26 04:31:32;;;;;;;39.78;19.60;;;2.20;99.90;;;;;;5125358;28;20195;-88
2022/01/26 04:33:59;;;;;;;43.25;19.75;;;2.00;99.90;;;;;;5123913;28;20258;-88
2022/01/26 04:36:32;;;;;;;42.72;20.30;;;1.70;99.90;;;;;;5123917;28;20214;-87
2022/01/26 04:39:03;;;;;;;43.67;21.38;;;1.60;99.90;;;;;;5123607;28;20192;-88
2022/01/26 04:41:35;;;;;;;44.88;22.98;;;1.50;99.90;;;;;;5123406;28;20223;-87
2022/01/26 04:44:08;;;;;;;51.55;23.08;;;1.50;99.90;;;;;;5125073;28;20308;-87
2022/01/26 04:46:35;;;;;;;48.00;22.90;;;1.40;99.90;;;;;;5132701;28;20192;-87
2022/01/26 04:49:02;;;;;;;50.95;22.95;;;1.70;99.90;;;;;;5124475;28;20261;-88
2022/01/26 04:51:31;;;;;;;44.38;20.88;;;1.40;99.90;;;;;;5123605;28;20658;-87
2022/01/26 04:53:58;;;;;;;41.33;21.58;;;1.70;99.90;;;;;;5129944;28;20224;-87
2022/01/26 04:56:25;;;;;;;48.47;21.83;;;1.70;99.90;;;;;;5136885;28;20258;-88
2022/01/26 04:58:52;;;;;;;48.28;23.10;;;1.60;99.90;;;;;;5127984;28;20239;-89
2022/01/26 05:01:19;;;;;;;44.83;21.33;;;1.90;99.90;;;;;;5125050;28;20571;-88
2022/01/26 05:03:45;;;;;;;44.40;22.38;;;2.00;99.90;;;;;;5127389;28;20234;-87
2022/01/26 05:06:12;;;;;;;49.80;23.27;;;1.90;99.90;;;;;;5137818;28;20279;-88
2022/01/26 05:08:41;;;;;;;44.90;21.45;;;1.90;99.90;;;;;;5129064;28;20227;-88
2022/01/26 05:11:10;;;;;;;40.72;19.83;;;1.80;99.90;;;;;;5126529;28;20659;-88
2022/01/26 05:13:37;;;;;;;46.30;22.85;;;2.00;99.90;;;;;;5127354;28;20265;-88
2022/01/26 05:16:06;;;;;;;47.55;23.45;;;2.00;99.90;;;;;;5125076;28;20211;-88
2022/01/26 05:18:33;;;;;;;46.15;24.02;;;1.90;99.90;;;;;;5123779;28;20204;-88
2022/01/26 05:21:00;;;;;;;36.00;19.98;;;2.00;99.90;;;;;;5123939;28;20262;-87
2022/01/26 05:23:27;;;;;;;43.78;21.48;;;1.80;99.90;;;;;;5122944;28;20260;-88
2022/01/26 05:25:55;;;;;;;39.80;20.38;;;1.70;99.90;;;;;;5123159;28;20288;-88
2022/01/26 05:28:22;;;;;;;48.83;22.90;;;2.00;99.90;;;;;;5123290;28;20204;-87
2022/01/26 05:30:49;;;;;;;45.10;22.80;;;1.90;99.90;;;;;;5127942;28;20232;-87
2022/01/26 05:33:16;;;;;;;44.95;22.08;;;1.60;99.90;;;;;;5128927;28;20250;-88
2022/01/26 05:35:43;;;;;;;52.30;22.45;;;1.80;99.90;;;;;;5129601;28;20204;-88
2022/01/26 05:38:10;;;;;;;46.97;21.50;;;1.90;99.90;;;;;;5132287;28;20195;-87
2022/01/26 05:40:36;;;;;;;49.08;21.70;;;1.70;99.90;;;;;;5132623;28;20226;-87
2022/01/26 05:43:05;;;;;;;43.50;20.55;;;1.90;99.90;;;;;;5128324;28;20242;-87
2022/01/26 05:45:35;;;;;;;45.70;20.80;;;1.80;99.90;;;;;;5138222;28;20208;-86
2022/01/26 05:48:05;;;;;;;41.35;20.73;;;1.80;99.90;;;;;;5136178;28;20252;-87
2022/01/26 05:50:32;;;;;;;47.28;21.30;;;2.20;99.90;;;;;;5136529;28;20280;-87
2022/01/26 05:52:59;;;;;;;38.80;18.70;;;2.10;99.90;;;;;;5136933;28;20270;-86
2022/01/26 05:55:26;;;;;;;43.63;20.17;;;2.10;99.90;;;;;;5129285;28;20226;-87
2022/01/26 05:57:53;;;;;;;46.20;21.45;;;2.20;99.90;;;;;;5124375;28;20770;-87
2022/01/26 06:00:21;;;;;;;42.50;21.02;;;2.20;99.90;;;;;;5124170;28;20270;-87
2022/01/26 06:02:48;;;;;;;40.63;20.20;;;2.10;99.90;;;;;;5126311;28;20270;-87
2022/01/26 06:05:15;;;;;;;42.70;22.10;;;2.20;99.90;;;;;;5131721;28;20274;-86
2022/01/26 06:07:42;;;;;;;48.28;20.23;;;2.30;99.90;;;;;;5124302;28;20218;-87
2022/01/26 06:10:09;;;;;;;40.47;19.30;;;2.10;99.90;;;;;;5123176;28;20210;-87
2022/01/26 06:12:36;;;;;;;42.53;20.83;;;2.30;99.90;;;;;;5130663;28;20195;-87
2022/01/26 06:15:04;;;;;;;39.10;20.58;;;2.30;99.90;;;;;;5126732;28;20227;-86
2022/01/26 06:17:33;;;;;;;43.40;21.98;;;2.30;99.90;;;;;;5122456;28;20191;-87
2022/01/26 06:19:59;;;;;;;40.05;19.38;;;2.20;99.90;;;;;;5121697;28;20278;-86
2022/01/26 06:22:27;;;;;;;47.05;21.25;;;2.30;99.90;;;;;;5122434;28;20228;-87
2022/01/26 06:24:55;;;;;;;43.03;19.80;;;2.30;99.90;;;;;;5121717;28;20234;-86
2022/01/26 06:27:22;;;;;;;46.53;23.10;;;2.10;99.90;;;;;;5122470;28;20199;-86
2022/01/26 06:29:48;;;;;;;41.58;19.83;;;2.20;99.90;;;;;;5122385;28;20207;-86
2022/01/26 06:32:17;;;;;;;42.60;20.30;;;2.30;99.90;;;;;;5122362;28;20294;-87
2022/01/26 06:34:46;;;;;;;42.95;21.52;;;2.10;99.90;;;;;;5121715;28;20274;-86
2022/01/26 06:37:15;;;;;;;46.72;22.45;;;2.10;99.90;;;;;;5129622;28;20215;-86
2022/01/26 06:39:42;;;;;;;40.78;19.33;;;2.40;99.90;;;;;;5135241;28;20235;-87
2022/01/26 06:42:13;;;;;;;37.60;19.98;;;2.30;99.90;;;;;;5125398;28;20316;-87
2022/01/26 06:44:50;;;;;;;39.20;19.95;;;2.00;99.90;;;;;;5123379;28;20234;-87
2022/01/26 06:47:32;;;;;;;37.53;19.38;;;2.10;99.90;;;;;;5134952;28;20196;-87
2022/01/26 06:50:00;;;;;;;38.53;19.25;;;2.10;99.90;;;;;;5127915;28;20196;-88
2022/01/26 06:52:27;;;;;;;35.97;17.77;;;2.20;99.90;;;;;;5124169;28;20291;-87
2022/01/26 06:54:54;;;;;;;40.05;20.77;;;2.20;99.90;;;;;;5124447;28;20226;-88
2022/01/26 06:57:21;;;;;;;41.50;20.80;;;2.20;99.90;;;;;;5124228;28;20200;-87
2022/01/26 06:59:48;;;;;;;30.02;18.70;;;2.10;99.90;;;;;;5123297;28;20313;-87
2022/01/26 07:02:15;;;;;;;34.10;19.20;;;2.10;99.90;;;;;;5123869;28;20231;-88
2022/01/26 07:04:42;;;;;;;35.78;18.23;;;2.00;99.90;;;;;;5125726;28;20223;-87
2022/01/26 07:07:10;;;;;;;33.72;18.92;;;2.00;99.90;;;;;;5128576;28;20202;-87
2022/01/26 07:09:37;;;;;;;39.05;18.45;;;2.10;99.90;;;;;;5130324;28;20221;-87
2022/01/26 07:12:05;;;;;;;29.23;16.80;;;2.00;99.90;;;;;;5130760;28;20230;-87
2022/01/26 07:20:30;;;;;;;40.70;18.48;;;2.50;99.90;;;;;;5127420;28;20213;-87
2022/01/26 07:22:49;;;;;;;42.00;19.63;;;2.30;99.90;;;;;;5124471;28;20219;-87
2022/01/26 07:25:16;;;;;;;33.30;18.05;;;2.20;99.90;;;;;;5128467;28;20203;-87
2022/01/26 07:27:43;;;;;;;32.35;18.75;;;2.00;99.90;;;;;;5129351;28;20242;-87
2022/01/26 07:30:11;;;;;;;34.42;17.50;;;2.10;99.90;;;;;;5127797;28;20215;-86
2022/01/26 07:32:38;;;;;;;31.30;15.93;;;2.10;99.90;;;;;;5127711;28;20212;-88
2022/01/26 07:35:05;;;;;;;30.17;13.50;;;2.10;99.90;;;;;;5124865;28;20307;-87
2022/01/26 07:37:32;;;;;;;32.85;17.85;;;2.60;99.90;;;;;;5126221;28;20230;-87
2022/01/26 07:40:04;;;;;;;35.70;17.75;;;2.70;99.90;;;;;;5125551;28;20266;-87
2022/01/26 07:42:31;;;;;;;36.10;16.63;;;2.50;99.90;;;;;;5127177;28;20269;-86
2022/01/26 07:44:58;;;;;;;29.00;15.35;;;2.20;99.90;;;;;;5133052;28;20227;-86
2022/01/26 07:47:25;;;;;;;38.45;20.08;;;2.40;99.90;;;;;;5133068;28;20235;-86
2022/01/26 07:49:55;;;;;;;34.60;16.45;;;2.00;99.90;;;;;;5133849;28;20192;-85
2022/01/26 07:52:26;;;;;;;31.88;15.90;;;2.00;99.90;;;;;;5134354;28;20237;-86
2022/01/26 07:54:54;;;;;;;41.17;20.38;;;2.10;99.90;;;;;;5134085;28;20256;-86
2022/01/26 07:57:23;;;;;;;37.78;20.55;;;2.00;99.90;;;;;;5131156;28;20215;-86
2022/01/26 07:59:49;;;;;;;35.13;18.02;;;1.90;99.90;;;;;;5127347;28;20219;-86
2022/01/26 08:02:16;;;;;;;32.45;15.43;;;2.30;99.90;;;;;;5135158;28;20230;-86
2022/01/26 08:04:43;;;;;;;35.10;17.45;;;2.40;99.90;;;;;;5135951;28;20224;-86
2022/01/26 08:07:10;;;;;;;36.80;18.63;;;2.50;99.90;;;;;;5129219;28;20234;-87
2022/01/26 08:09:43;;;;;;;38.35;18.38;;;2.40;99.90;;;;;;5127304;28;20203;-86
2022/01/26 08:12:10;;;;;;;33.38;18.58;;;2.60;99.90;;;;;;5125825;28;20183;-86
2022/01/26 08:14:38;;;;;;;36.22;18.83;;;2.50;99.90;;;;;;5125229;28;20234;-86
2022/01/26 08:17:06;;;;;;;35.90;19.17;;;2.30;99.90;;;;;;5126611;28;20198;-86
2022/01/26 08:19:33;;;;;;;38.08;18.98;;;2.30;99.90;;;;;;5126678;28;20257;-85
2022/01/26 08:22:01;;;;;;;35.53;19.55;;;2.30;99.90;;;;;;5127542;28;20311;-86
2022/01/26 08:24:29;;;;;;;37.42;18.90;;;1.80;99.90;;;;;;5126977;28;20778;-87
2022/01/26 08:27:02;;;;;;;44.72;20.98;;;2.40;99.90;;;;;;5126435;28;20211;-86
2022/01/26 08:29:33;;;;;;;34.03;16.30;;;2.60;99.90;;;;;;5125989;28;20221;-86
2022/01/26 08:32:01;;;;;;;37.30;18.77;;;2.60;99.90;;;;;;5126334;28;20214;-86
2022/01/26 08:34:28;;;;;;;34.42;19.33;;;2.60;99.90;;;;;;5125949;28;20258;-85
2022/01/26 08:36:55;;;;;;;47.15;20.50;;;2.30;99.90;;;;;;5124295;28;20214;-86
2022/01/26 08:39:22;;;;;;;45.10;22.58;;;2.20;99.90;;;;;;5125085;28;20579;-86
2022/01/26 08:41:49;;;;;;;44.63;22.08;;;2.10;99.90;;;;;;5124677;28;20238;-86
2022/01/26 08:44:16;;;;;;;41.88;21.10;;;2.10;99.90;;;;;;5124617;28;20732;-87
2022/01/26 08:46:43;;;;;;;21.63;11.88;;;1.90;99.90;;;;;;5125014;28;20289;-87
2022/01/26 08:49:12;;;;;;;38.10;19.77;;;2.10;99.90;;;;;;5140681;22;20224;-87
2022/01/26 08:51:39;;;;;;;39.22;16.15;;;2.30;99.90;;;;;;5082518;28;20561;-87
2022/01/26 08:54:06;;;;;;;35.75;18.35;;;1.80;99.90;;;;;;5080206;28;20209;-87
2022/01/26 08:56:33;;;;;;;35.30;19.20;;;2.20;99.90;;;;;;5080976;28;20208;-87
2022/01/26 08:59:00;;;;;;;45.28;19.20;;;1.90;99.90;;;;;;5086811;28;20260;-85
2022/01/26 09:01:27;;;;;;;41.55;20.00;;;1.60;99.90;;;;;;5081886;28;20196;-85
2022/01/26 09:03:54;;;;;;;43.95;22.27;;;1.80;99.90;;;;;;5084482;28;20209;-87
2022/01/26 09:06:22;;;;;;;38.35;18.80;;;1.90;99.90;;;;;;5089943;28;20258;-88
2022/01/26 09:08:56;;;;;;;40.58;20.20;;;2.00;99.90;;;;;;5083360;28;20280;-85
2022/01/26 09:11:23;;;;;;;38.38;19.67;;;1.70;99.90;;;;;;5084325;28;20589;-87
2022/01/26 09:13:56;;;;;;;44.03;21.20;;;2.30;99.90;;;;;;5083771;28;20657;-87
2022/01/26 09:16:25;;;;;;;38.80;18.00;;;2.40;99.90;;;;;;5083352;28;20208;-87
2022/01/26 09:18:54;;;;;;;39.20;19.52;;;2.60;99.90;;;;;;5081598;28;20208;-88
2022/01/26 09:21:24;;;;;;;45.50;21.25;;;2.20;99.90;;;;;;5081950;28;20212;-88
2022/01/26 09:23:52;;;;;;;46.28;21.08;;;2.60;99.90;;;;;;5092721;28;20220;-87
2022/01/26 09:26:19;;;;;;;45.45;21.05;;;2.30;99.90;;;;;;5082423;28;20685;-86
2022/01/26 09:28:46;;;;;;;31.95;17.38;;;2.90;99.90;;;;;;5080567;28;20213;-86
2022/01/26 09:31:13;;;;;;;38.78;18.73;;;2.20;99.90;;;;;;5080590;28;20574;-85
2022/01/26 09:33:40;;;;;;;40.70;19.50;;;2.50;99.90;;;;;;5078051;28;20213;-85
2022/01/26 09:36:07;;;;;;;36.60;20.10;;;2.10;99.90;;;;;;5079677;28;20263;-85
2022/01/26 09:38:35;;;;;;;32.70;17.67;;;1.80;99.90;;;;;;5081588;28;20283;-85
2022/01/26 09:41:04;;;;;;;35.22;16.30;;;2.10;99.90;;;;;;5094882;28;20216;-84
2022/01/26 09:43:32;;;;;;;41.88;19.10;;;2.40;99.90;;;;;;5091222;28;20262;-86
2022/01/26 09:45:59;;;;;;;39.10;23.42;;;2.40;99.90;;;;;;5086419;28;20274;-87
2022/01/26 09:48:26;;;;;;;38.53;18.95;;;2.50;99.90;;;;;;5084776;28;20208;-85
2022/01/26 09:50:56;;;;;;;33.20;14.75;;;2.40;99.90;;;;;;5093066;28;20228;-88
2022/01/26 09:53:27;;;;;;;34.05;17.40;;;2.40;99.90;;;;;;5085491;28;20243;-87
2022/01/26 09:55:56;;;;;;;38.13;19.25;;;2.60;99.90;;;;;;5084776;28;20250;-86
2022/01/26 09:58:23;;;;;;;38.58;18.73;;;2.30;99.90;;;;;;5084828;28;20194;-88
2022/01/26 10:00:58;;;;;;;41.63;19.13;;;2.80;99.90;;;;;;5081700;28;20283;-87
2022/01/26 10:03:31;;;;;;;41.60;21.13;;;2.70;99.90;;;;;;5084006;28;20219;-86
2022/01/26 10:05:58;;;;;;;39.47;20.42;;;2.50;99.90;;;;;;5083171;28;20220;-87
2022/01/26 10:08:54;;;;;;;35.15;18.15;;;2.60;99.90;;;;;;5082447;28;20581;-88
2022/01/26 10:19:59;;;;;;;43.80;18.73;;;2.80;99.90;;;;;;5083064;28;20759;-88
2022/01/26 10:22:31;;;;;;;33.85;18.98;;;2.80;99.90;;;;;;5082004;28;20225;-86
2022/01/26 10:25:06;;;;;;;37.67;18.83;;;2.70;99.90;;;;;;5082065;28;20237;-87
2022/01/26 10:27:39;;;;;;;32.20;17.30;;;2.80;99.90;;;;;;5083684;28;20228;-87
2022/01/26 10:30:08;;;;;;;33.60;17.80;;;2.70;99.90;;;;;;5083889;28;20225;-88
2022/01/26 10:32:36;;;;;;;33.10;16.38;;;2.90;99.90;;;;;;5081457;28;20288;-88
2022/01/26 10:35:04;;;;;;;30.63;16.42;;;2.80;99.90;;;;;;5080002;28;20301;-86
2022/01/26 10:37:32;;;;;;;31.48;16.35;;;3.10;99.90;;;;;;5081667;28;20258;-87
2022/01/26 10:40:15;;;;;;;32.00;16.92;;;2.90;99.90;;;;;;5083089;28;20791;-86
2022/01/26 10:42:56;;;;;;;28.35;15.48;;;3.00;99.90;;;;;;5089329;28;20573;-88
2022/01/26 10:45:55;;;;;;;31.25;16.45;;;2.60;99.90;;;;;;5088543;28;20195;-89
2022/01/26 10:48:29;;;;;;;33.13;17.42;;;3.10;99.90;;;;;;5083230;28;20276;-88
2022/01/26 10:51:34;;;;;;;35.25;17.10;;;3.00;99.90;;;;;;5080954;28;20240;-88
2022/01/26 10:54:12;;;;;;;37.40;20.30;;;3.00;99.90;;;;;;5082324;28;20201;-88
2022/01/26 10:56:40;;;;;;;31.80;16.75;;;2.90;99.90;;;;;;5085583;28;20222;-85
2022/01/26 10:59:09;;;;;;;32.72;17.60;;;3.00;99.90;;;;;;5083976;28;20227;-89
2022/01/26 11:01:37;;;;;;;33.70;17.10;;;2.80;99.90;;;;;;5079305;28;20205;-88
2022/01/26 11:04:05;;;;;;;33.40;16.90;;;3.30;99.90;;;;;;5079498;28;20220;-86
2022/01/26 11:06:32;;;;;;;32.25;16.15;;;3.40;99.90;;;;;;5081711;28;20219;-88
2022/01/26 11:09:07;;;;;;;29.42;15.90;;;3.30;99.90;;;;;;5095431;28;20213;-86
2022/01/26 11:11:35;;;;;;;30.75;16.65;;;3.10;99.90;;;;;;5087146;28;20219;-88
2022/01/26 11:14:15;;;;;;;34.45;16.55;;;2.90;99.90;;;;;;5083502;28;20258;-87
2022/01/26 11:16:50;;;;;;;40.38;18.45;;;2.80;99.90;;;;;;5081757;28;20261;-87
2022/01/26 11:19:17;;;;;;;33.88;19.38;;;2.90;99.90;;;;;;5092370;28;20732;-88
2022/01/26 11:21:44;;;;;;;31.27;16.48;;;2.90;99.90;;;;;;5089062;28;20205;-87
2022/01/26 11:24:18;;;;;;;35.08;17.23;;;2.80;99.90;;;;;;5086470;28;20641;-87
2022/01/26 11:26:47;;;;;;;32.38;17.35;;;3.00;99.90;;;;;;5083741;28;20220;-86
2022/01/26 11:29:22;;;;;;;36.05;16.83;;;3.40;99.90;;;;;;5086981;28;20300;-86
2022/01/26 11:32:02;;;;;;;41.13;19.48;;;3.20;99.90;;;;;;5092646;28;20205;-87
2022/01/26 11:34:30;;;;;;;43.40;20.13;;;3.20;99.90;;;;;;5091419;28;20223;-86
2022/01/26 11:37:00;;;;;;;35.42;16.52;;;3.20;99.90;;;;;;5085821;28;20259;-89
2022/01/26 11:45:10;;;;;;;40.55;20.30;;;2.90;99.90;;;;;;5083732;28;20193;-87
2022/01/26 11:47:40;;;;;;;41.28;19.70;;;3.00;99.90;;;;;;5090106;28;20193;-89
2022/01/26 11:50:10;;;;;;;42.80;20.08;;;3.20;99.90;;;;;;5090489;28;20232;-87
2022/01/26 11:52:39;;;;;;;43.08;21.00;;;2.80;99.90;;;;;;5089760;28;20204;-87
2022/01/26 11:55:20;;;;;;;51.72;22.13;;;2.80;99.90;;;;;;5090912;28;20291;-87
2022/01/26 11:57:51;;;;;;;44.75;21.40;;;2.90;99.90;;;;;;5085431;28;20197;-88
2022/01/26 12:00:37;;;;;;;27.58;13.30;;;2.60;99.90;;;;;;5086155;28;20238;-89
2022/01/26 12:03:09;;;;;;;41.53;20.98;;;3.10;99.90;;;;;;5084302;28;20213;-87
2022/01/26 12:05:45;;;;;;;50.22;22.00;;;3.00;99.90;;;;;;5084782;28;20200;-88
2022/01/26 12:08:15;;;;;;;39.63;20.13;;;3.00;99.90;;;;;;5084699;28;20209;-88
2022/01/26 12:10:47;;;;;;;50.22;20.75;;;2.80;99.90;;;;;;5085199;28;20689;-89
2022/01/26 12:13:20;;;;;;;48.67;21.30;;;2.60;99.90;;;;;;5090177;28;20190;-89
2022/01/26 12:15:53;;;;;;;47.88;21.90;;;2.70;99.90;;;;;;5091412;28;20193;-88
2022/01/26 12:18:28;;;;;;;40.17;19.80;;;2.80;99.90;;;;;;5088738;28;20586;-88
2022/01/26 12:32:21;;;;;;;25.38;11.45;;;2.80;99.90;;;;;;5084129;28;20196;-88
2022/01/26 12:34:59;;;;;;;37.42;17.90;;;2.70;99.90;;;;;;5090132;28;20216;-87
2022/01/26 12:37:38;;;;;;;39.00;18.25;;;2.50;99.90;;;;;;5098505;28;20212;-89
2022/01/26 12:43:02;;;;;;;34.30;16.92;;;2.70;99.90;;;;;;5081946;28;20262;-87
2022/01/26 12:45:29;;;;;;;43.63;21.17;;;2.90;99.90;;;;;;5083398;28;20267;-87
2022/01/26 12:47:58;;;;;;;36.60;17.63;;;2.90;99.90;;;;;;5082987;28;20272;-89
2022/01/26 12:50:26;;;;;;;35.72;16.88;;;2.80;99.90;;;;;;5082568;28;20240;-87
2022/01/26 12:52:56;;;;;;;37.58;17.38;;;2.80;99.90;;;;;;5083114;28;20212;-86
2022/01/26 12:55:26;;;;;;;38.45;18.60;;;3.20;99.90;;;;;;5082598;28;20699;-88
2022/01/26 12:57:54;;;;;;;36.13;18.08;;;3.10;99.90;;;;;;5082239;28;20206;-86
2022/01/26 13:00:23;;;;;;;44.83;19.50;;;2.60;99.90;;;;;;5083090;28;20245;-87
2022/01/26 13:02:54;;;;;;;39.80;18.80;;;2.90;99.90;;;;;;5081972;28;20273;-88
2022/01/26 13:05:27;;;;;;;42.53;19.40;;;2.50;99.90;;;;;;5081599;28;20300;-87
2022/01/26 13:08:01;;;;;;;35.38;14.10;;;2.90;99.90;;;;;;5082483;28;20554;-87
2022/01/26 13:10:30;;;;;;;37.78;19.55;;;3.10;99.90;;;;;;5080843;28;20225;-88
2022/01/26 13:13:08;;;;;;;34.10;18.05;;;2.90;99.90;;;;;;5081706;28;20236;-87
2022/01/26 13:15:42;;;;;;;34.92;15.10;;;3.00;99.90;;;;;;5082061;28;20193;-87
2022/01/26 13:18:21;;;;;;;33.65;15.18;;;3.10;99.90;;;;;;5081593;28;20188;-88
2022/01/26 13:21:15;;;;;;;31.60;16.48;;;3.00;99.90;;;;;;5083519;28;20256;-87
2022/01/26 13:23:55;;;;;;;38.38;18.27;;;3.10;99.90;;;;;;5082066;28;20288;-87
2022/01/26 13:26:34;;;;;;;30.52;14.48;;;2.90;99.90;;;;;;5081746;28;20204;-86
2022/01/26 13:29:28;;;;;;;47.70;18.33;;;2.90;99.90;;;;;;5081619;28;20568;-86
2022/01/26 13:32:19;;;;;;;33.70;17.85;;;2.70;99.90;;;;;;5084159;28;20257;-87
2022/01/26 13:37:41;;;;;;;36.30;16.23;;;3.10;99.90;;;;;;5059345;28;20200;-88
2022/01/26 13:40:23;;;;;;;41.92;17.42;;;2.90;99.90;;;;;;5088890;28;20694;-87
2022/01/26 13:45:59;;;;;;;28.33;14.32;;;3.00;99.90;;;;;;5081622;28;20204;-87
2022/01/26 13:48:58;;;;;;;25.52;13.00;;;3.10;99.90;;;;;;5083171;28;20247;-88
2022/01/26 13:51:37;;;;;;;28.98;13.65;;;2.90;99.90;;;;;;5080971;28;20209;-87
2022/01/26 13:56:58;;;;;;;36.83;17.55;;;2.50;99.90;;;;;;5084625;28;20268;-87
2022/01/26 13:59:29;;;;;;;30.45;14.90;;;2.60;99.90;;;;;;5083129;28;20292;-88
2022/01/26 14:01:57;;;;;;;35.53;16.65;;;2.90;99.90;;;;;;5084392;28;20196;-88
2022/01/26 14:04:24;;;;;;;36.90;18.52;;;2.90;99.90;;;;;;5095915;28;20224;-87
2022/01/26 14:06:51;;;;;;;33.28;16.77;;;2.80;99.90;;;;;;5087892;28;20244;-87
2022/01/26 14:09:19;;;;;;;33.08;15.05;;;2.30;99.90;;;;;;5081813;28;20228;-86
2022/01/26 14:11:49;;;;;;;18.42;7.95;;;2.80;99.90;;;;;;5082653;28;20228;-87
2022/01/26 14:14:24;;;;;;;33.17;15.88;;;2.30;99.90;;;;;;5081236;28;20199;-88
2022/01/26 14:16:57;;;;;;;31.55;15.50;;;2.10;99.90;;;;;;5084898;28;20230;-87
2022/01/26 14:19:32;;;;;;;32.35;12.93;;;2.50;99.90;;;;;;5091300;28;20238;-87
2022/01/26 14:25:07;;;;;;;20.65;9.65;;;2.20;99.90;;;;;;5081409;28;20212;-88
2022/01/26 14:27:40;;;;;;;18.33;10.85;;;2.40;99.90;;;;;;5081459;28;20542;-88
2022/01/26 14:30:21;;;;;;;31.92;16.85;;;2.30;99.90;;;;;;5082736;28;20644;-88